createdAt,value
2017-09-29T00:00:05.792Z,69.30
2017-09-29T00:01:10.478Z,69.20
2017-09-29T00:02:15.258Z,69.30
2017-09-29T00:03:20.216Z,69.30
2017-09-29T00:04:25.003Z,69.20
2017-09-29T00:05:29.891Z,69.20
2017-09-29T00:06:34.673Z,69.20
2017-09-29T00:07:39.579Z,69.20
2017-09-29T00:08:44.445Z,69.20
2017-09-29T00:09:49.190Z,69.90
2017-09-29T00:10:54.134Z,69.20
2017-09-29T00:11:59.053Z,69.10
2017-09-29T00:13:03.861Z,69.10
2017-09-29T00:14:08.811Z,69.20
2017-09-29T00:15:13.734Z,69.20
2017-09-29T00:16:18.546Z,69.20
2017-09-29T00:17:23.354Z,69.10
2017-09-29T00:18:28.150Z,69.10
2017-09-29T00:19:33.121Z,69.10
2017-09-29T00:20:37.936Z,69.20
2017-09-29T00:21:42.653Z,69.00
2017-09-29T00:22:47.404Z,69.00
2017-09-29T00:23:52.149Z,69.00
2017-09-29T00:24:57.085Z,69.10
2017-09-29T00:26:01.963Z,69.00
2017-09-29T00:27:06.839Z,69.10
2017-09-29T00:28:11.737Z,69.10
2017-09-29T00:29:16.406Z,69.10
2017-09-29T00:30:21.285Z,69.00
2017-09-29T00:31:26.025Z,69.00
2017-09-29T00:32:30.761Z,69.00
2017-09-29T00:33:35.648Z,69.00
2017-09-29T00:34:40.568Z,69.00
2017-09-29T00:35:45.195Z,69.10
2017-09-29T00:36:50.093Z,69.00
2017-09-29T00:37:55.072Z,69.00
2017-09-29T00:39:00.034Z,69.00
2017-09-29T00:40:04.880Z,68.90
2017-09-29T00:41:09.677Z,69.00
2017-09-29T00:42:14.553Z,69.00
2017-09-29T00:43:19.308Z,69.00
2017-09-29T00:44:24.109Z,68.90
2017-09-29T00:45:28.814Z,68.90
2017-09-29T00:46:33.669Z,68.90
2017-09-29T00:47:38.407Z,69.00
2017-09-29T00:48:43.170Z,68.90
2017-09-29T00:49:48.127Z,68.90
2017-09-29T00:50:52.916Z,68.90
2017-09-29T00:51:57.738Z,68.90
2017-09-29T00:53:02.377Z,68.80
2017-09-29T00:54:07.331Z,68.90
2017-09-29T00:55:11.957Z,68.80
2017-09-29T00:56:16.807Z,68.90
2017-09-29T00:57:21.651Z,68.90
2017-09-29T00:58:26.392Z,68.90
2017-09-29T00:59:31.024Z,68.80
2017-09-29T01:00:35.774Z,68.90
2017-09-29T01:01:40.518Z,68.90
2017-09-29T01:02:45.195Z,68.90
2017-09-29T01:03:49.840Z,68.90
2017-09-29T01:04:54.557Z,68.90
2017-09-29T01:05:59.142Z,68.90
2017-09-29T01:07:03.860Z,68.90
2017-09-29T01:08:08.443Z,68.90
2017-09-29T01:09:13.406Z,68.90
2017-09-29T01:10:18.320Z,68.90
2017-09-29T01:11:23.121Z,68.90
2017-09-29T01:12:27.769Z,68.80
2017-09-29T01:13:32.737Z,68.90
2017-09-29T01:14:37.760Z,68.80
2017-09-29T01:15:42.528Z,68.80
2017-09-29T01:16:47.392Z,68.80
2017-09-29T01:17:52.237Z,68.80
2017-09-29T01:18:56.973Z,68.80
2017-09-29T01:20:01.854Z,68.80
2017-09-29T01:21:06.469Z,68.80
2017-09-29T01:22:11.256Z,68.80
2017-09-29T01:23:16.011Z,68.80
2017-09-29T01:24:20.854Z,68.80
2017-09-29T01:25:25.674Z,68.90
2017-09-29T01:26:30.611Z,68.80
2017-09-29T01:27:35.376Z,68.80
2017-09-29T01:28:40.322Z,68.80
2017-09-29T01:29:45.178Z,68.80
2017-09-29T01:30:49.742Z,68.80
2017-09-29T01:31:54.497Z,68.80
2017-09-29T01:32:59.226Z,68.80
2017-09-29T01:34:03.950Z,68.90
2017-09-29T01:35:08.902Z,68.80
2017-09-29T01:36:13.614Z,68.90
2017-09-29T01:37:18.409Z,68.80
2017-09-29T01:38:23.021Z,68.80
2017-09-29T01:39:27.844Z,68.90
2017-09-29T01:40:32.752Z,68.80
2017-09-29T01:41:37.539Z,68.80
2017-09-29T01:42:42.433Z,68.80
2017-09-29T01:43:47.308Z,68.80
2017-09-29T01:44:51.942Z,68.80
2017-09-29T01:45:56.626Z,68.80
2017-09-29T01:47:01.549Z,68.80
2017-09-29T01:48:06.274Z,68.80
2017-09-29T01:49:11.074Z,68.80
2017-09-29T01:50:15.853Z,68.80
2017-09-29T01:51:20.628Z,68.80
2017-09-29T01:52:25.399Z,68.80
2017-09-29T01:53:29.991Z,68.80
2017-09-29T01:54:34.750Z,68.80
2017-09-29T01:55:39.498Z,68.80
2017-09-29T01:56:44.065Z,68.80
2017-09-29T01:57:48.624Z,68.80
2017-09-29T01:58:53.494Z,68.80
2017-09-29T01:59:58.417Z,68.80
2017-09-29T02:01:03.336Z,68.80
2017-09-29T02:02:08.126Z,68.60
2017-09-29T02:03:12.897Z,68.80
2017-09-29T02:04:17.813Z,68.80
2017-09-29T02:05:22.836Z,68.80
2017-09-29T02:06:27.569Z,68.70
2017-09-29T02:07:32.219Z,68.80
2017-09-29T02:08:36.913Z,68.70
2017-09-29T02:09:41.735Z,68.80
2017-09-29T02:10:46.650Z,68.80
2017-09-29T02:11:51.750Z,68.80
2017-09-29T02:12:56.363Z,68.80
2017-09-29T02:14:01.111Z,69.40
2017-09-29T02:15:05.882Z,68.80
2017-09-29T02:16:10.707Z,68.70
2017-09-29T02:17:15.647Z,68.70
2017-09-29T02:18:20.227Z,68.70
2017-09-29T02:19:24.812Z,68.80
2017-09-29T02:20:29.574Z,68.70
2017-09-29T02:21:34.413Z,68.70
2017-09-29T02:22:39.454Z,68.70
2017-09-29T02:23:44.343Z,68.70
2017-09-29T02:24:49.119Z,68.70
2017-09-29T02:25:53.898Z,68.70
2017-09-29T02:26:58.788Z,68.70
2017-09-29T02:28:03.498Z,68.60
2017-09-29T02:29:08.207Z,68.80
2017-09-29T02:30:12.988Z,68.70
2017-09-29T02:31:17.710Z,68.80
2017-09-29T02:32:22.430Z,68.70
2017-09-29T02:33:27.130Z,68.70
2017-09-29T02:34:31.875Z,68.60
2017-09-29T02:35:36.501Z,68.70
2017-09-29T02:36:41.386Z,68.60
2017-09-29T02:37:46.042Z,68.60
2017-09-29T02:38:50.739Z,68.60
2017-09-29T02:39:55.297Z,68.70
2017-09-29T02:41:00.045Z,68.70
2017-09-29T02:42:04.837Z,68.80
2017-09-29T02:43:09.662Z,68.70
2017-09-29T02:44:14.611Z,68.70
2017-09-29T02:45:19.534Z,68.60
2017-09-29T02:46:24.311Z,68.60
2017-09-29T02:47:28.929Z,68.60
2017-09-29T02:48:33.543Z,68.70
2017-09-29T02:49:38.329Z,68.60
2017-09-29T02:50:43.060Z,68.60
2017-09-29T02:51:48.007Z,69.20
2017-09-29T02:52:52.788Z,68.60
2017-09-29T02:53:57.387Z,68.60
2017-09-29T02:55:02.128Z,68.70
2017-09-29T02:56:06.977Z,68.60
2017-09-29T02:57:11.786Z,68.50
2017-09-29T02:58:16.565Z,68.50
2017-09-29T02:59:21.346Z,68.50
2017-09-29T03:00:26.240Z,68.50
2017-09-29T03:01:31.062Z,68.50
2017-09-29T03:02:35.821Z,68.60
2017-09-29T03:03:40.716Z,68.60
2017-09-29T03:04:45.345Z,68.60
2017-09-29T03:05:50.181Z,68.60
2017-09-29T03:06:54.986Z,69.20
2017-09-29T03:07:59.820Z,68.60
2017-09-29T03:09:04.661Z,68.60
2017-09-29T03:10:09.242Z,68.60
2017-09-29T03:11:13.887Z,68.60
2017-09-29T03:12:18.484Z,68.60
2017-09-29T03:13:23.485Z,68.50
2017-09-29T03:14:28.424Z,68.50
2017-09-29T03:15:32.971Z,68.50
2017-09-29T03:16:37.756Z,68.50
2017-09-29T03:17:42.684Z,68.50
2017-09-29T03:18:47.491Z,68.60
2017-09-29T03:19:52.083Z,68.50
2017-09-29T03:20:56.970Z,68.50
2017-09-29T03:22:01.727Z,68.50
2017-09-29T03:23:06.420Z,68.50
2017-09-29T03:24:11.020Z,68.50
2017-09-29T03:25:15.571Z,68.50
2017-09-29T03:26:20.497Z,68.50
2017-09-29T03:27:25.687Z,68.50
2017-09-29T03:28:30.972Z,68.50
2017-09-29T03:29:35.817Z,68.60
2017-09-29T03:30:41.668Z,68.40
2017-09-29T03:31:46.892Z,68.40
2017-09-29T03:32:52.017Z,68.40
2017-09-29T03:33:57.078Z,68.30
2017-09-29T03:35:02.214Z,68.40
2017-09-29T03:36:07.208Z,68.40
2017-09-29T03:37:12.476Z,68.30
2017-09-29T03:38:17.468Z,68.40
2017-09-29T03:39:22.570Z,68.30
2017-09-29T03:40:28.063Z,68.40
2017-09-29T03:41:33.133Z,68.40
2017-09-29T03:42:38.430Z,68.30
2017-09-29T03:43:43.397Z,68.20
2017-09-29T03:44:49.790Z,68.20
2017-09-29T03:45:54.931Z,68.10
2017-09-29T03:47:00.020Z,68.20
2017-09-29T03:48:05.637Z,68.10
2017-09-29T03:49:11.407Z,68.10
2017-09-29T03:50:16.682Z,68.20
2017-09-29T03:51:21.829Z,68.20
2017-09-29T03:52:26.891Z,68.00
2017-09-29T03:53:31.920Z,68.10
2017-09-29T03:54:36.880Z,68.10
2017-09-29T03:55:41.975Z,68.10
2017-09-29T03:56:47.411Z,68.20
2017-09-29T03:57:52.515Z,68.10
2017-09-29T03:58:57.659Z,68.00
2017-09-29T04:00:02.897Z,68.10
2017-09-29T04:01:08.157Z,68.00
2017-09-29T04:02:13.143Z,68.00
2017-09-29T04:03:18.226Z,68.00
2017-09-29T04:04:23.452Z,68.00
2017-09-29T04:05:28.684Z,68.10
2017-09-29T04:06:33.729Z,68.10
2017-09-29T04:07:38.923Z,68.00
2017-09-29T04:08:43.910Z,68.00
2017-09-29T04:09:49.094Z,68.00
2017-09-29T04:10:54.242Z,68.10
2017-09-29T04:11:59.515Z,68.00
2017-09-29T04:13:04.687Z,67.90
2017-09-29T04:14:09.778Z,67.90
2017-09-29T04:15:14.788Z,67.90
2017-09-29T04:16:19.814Z,68.00
2017-09-29T04:17:25.088Z,67.90
2017-09-29T04:18:30.914Z,67.90
2017-09-29T04:19:36.422Z,67.90
2017-09-29T04:20:41.421Z,67.90
2017-09-29T04:21:48.123Z,67.90
2017-09-29T04:22:53.120Z,67.90
2017-09-29T04:23:58.487Z,67.90
2017-09-29T04:25:03.816Z,67.80
2017-09-29T04:26:09.266Z,67.90
2017-09-29T04:27:14.621Z,68.00
2017-09-29T04:28:19.998Z,67.80
2017-09-29T04:29:25.262Z,67.90
2017-09-29T04:30:30.655Z,67.90
2017-09-29T04:31:35.721Z,67.90
2017-09-29T04:32:40.894Z,67.90
2017-09-29T04:33:46.282Z,67.90
2017-09-29T04:34:51.365Z,67.90
2017-09-29T04:35:56.440Z,67.90
2017-09-29T04:37:01.595Z,67.90
2017-09-29T04:38:06.615Z,67.90
2017-09-29T04:39:11.612Z,67.90
2017-09-29T04:40:16.978Z,67.80
2017-09-29T04:41:22.180Z,67.90
2017-09-29T04:42:27.254Z,67.90
2017-09-29T04:43:32.242Z,67.90
2017-09-29T04:44:37.230Z,67.80
2017-09-29T04:45:43.267Z,67.80
2017-09-29T04:46:48.190Z,67.80
2017-09-29T04:47:53.106Z,67.80
2017-09-29T04:48:58.255Z,67.80
2017-09-29T04:50:03.340Z,67.80
2017-09-29T04:51:08.451Z,67.80
2017-09-29T04:52:13.521Z,67.80
2017-09-29T04:53:18.948Z,67.80
2017-09-29T04:54:25.710Z,67.80
2017-09-29T04:55:32.186Z,67.80
2017-09-29T04:56:37.726Z,67.80
2017-09-29T04:57:42.780Z,67.80
2017-09-29T04:58:47.771Z,67.80
2017-09-29T04:59:52.953Z,67.80
2017-09-29T05:00:58.235Z,67.80
2017-09-29T05:02:03.571Z,67.80
2017-09-29T05:03:08.859Z,67.70
2017-09-29T05:04:14.031Z,67.70
2017-09-29T05:05:19.245Z,67.80
2017-09-29T05:06:24.104Z,67.80
2017-09-29T05:07:29.143Z,67.90
2017-09-29T05:08:34.561Z,68.00
2017-09-29T05:09:39.840Z,68.20
2017-09-29T05:10:45.251Z,68.20
2017-09-29T05:11:50.741Z,68.40
2017-09-29T05:12:56.210Z,68.50
2017-09-29T05:14:01.954Z,68.60
2017-09-29T05:15:07.624Z,68.70
2017-09-29T05:16:13.146Z,68.70
2017-09-29T05:17:18.470Z,68.80
2017-09-29T05:18:23.570Z,69.00
2017-09-29T05:19:28.807Z,69.00
2017-09-29T05:20:33.922Z,69.10
2017-09-29T05:21:39.718Z,69.30
2017-09-29T05:22:45.138Z,69.20
2017-09-29T05:23:50.866Z,69.40
2017-09-29T05:24:56.308Z,69.50
2017-09-29T05:26:03.100Z,69.60
2017-09-29T05:27:08.660Z,69.50
2017-09-29T05:28:14.346Z,70.00
2017-09-29T05:29:19.520Z,70.10
2017-09-29T05:30:25.010Z,70.30
2017-09-29T05:31:32.303Z,70.30
2017-09-29T05:32:37.931Z,70.30
2017-09-29T05:33:43.466Z,70.40
2017-09-29T05:34:48.613Z,70.50
2017-09-29T05:35:53.956Z,70.50
2017-09-29T05:36:59.479Z,70.70
2017-09-29T05:38:05.307Z,70.80
2017-09-29T05:39:10.494Z,71.00
2017-09-29T05:40:15.945Z,71.10
2017-09-29T05:41:23.075Z,71.10
2017-09-29T05:42:29.180Z,71.40
2017-09-29T05:43:34.976Z,71.40
2017-09-29T05:44:40.639Z,71.40
2017-09-29T05:45:46.393Z,71.40
2017-09-29T05:46:52.099Z,71.60
2017-09-29T05:47:57.358Z,71.60
2017-09-29T05:49:03.139Z,71.60
2017-09-29T05:50:08.665Z,71.60
2017-09-29T05:51:14.415Z,71.50
2017-09-29T05:52:19.878Z,71.60
2017-09-29T05:53:25.502Z,71.50
2017-09-29T05:54:31.038Z,71.40
2017-09-29T05:55:36.633Z,71.40
2017-09-29T05:56:42.995Z,71.30
2017-09-29T05:57:48.379Z,71.80
2017-09-29T05:58:54.024Z,71.80
2017-09-29T06:00:00.354Z,71.70
2017-09-29T06:01:05.674Z,71.60
2017-09-29T06:02:11.624Z,71.70
2017-09-29T06:03:18.404Z,71.90
2017-09-29T06:04:24.531Z,72.10
2017-09-29T06:05:30.310Z,72.20
2017-09-29T06:06:37.419Z,72.10
2017-09-29T06:07:43.062Z,71.90
2017-09-29T06:08:48.432Z,71.80
2017-09-29T06:09:53.808Z,71.70
2017-09-29T06:10:59.159Z,71.30
2017-09-29T06:12:04.710Z,71.40
2017-09-29T06:13:10.275Z,71.20
2017-09-29T06:14:15.830Z,71.00
2017-09-29T06:15:21.845Z,71.00
2017-09-29T06:16:27.506Z,70.80
2017-09-29T06:17:33.091Z,70.80
2017-09-29T06:18:39.682Z,70.70
2017-09-29T06:19:45.523Z,70.90
2017-09-29T06:20:51.478Z,71.10
2017-09-29T06:21:57.467Z,71.10
2017-09-29T06:23:03.246Z,70.90
2017-09-29T06:24:08.653Z,70.90
2017-09-29T06:25:14.283Z,70.70
2017-09-29T06:26:19.755Z,70.70
2017-09-29T06:27:24.756Z,70.60
2017-09-29T06:28:30.022Z,70.50
2017-09-29T06:29:35.546Z,70.50
2017-09-29T06:30:41.225Z,70.70
2017-09-29T06:31:47.134Z,70.70
2017-09-29T06:32:52.813Z,70.60
2017-09-29T06:33:58.347Z,70.60
2017-09-29T06:35:04.050Z,70.50
2017-09-29T06:36:09.840Z,70.30
2017-09-29T06:37:15.640Z,70.20
2017-09-29T06:38:20.746Z,70.30
2017-09-29T06:39:26.109Z,70.30
2017-09-29T06:40:31.631Z,70.20
2017-09-29T06:41:37.059Z,70.50
2017-09-29T06:42:43.257Z,70.80
2017-09-29T06:43:48.877Z,70.80
2017-09-29T06:44:54.496Z,70.70
2017-09-29T06:46:00.266Z,71.00
2017-09-29T06:47:05.948Z,70.90
2017-09-29T06:48:11.129Z,70.80
2017-09-29T06:49:16.397Z,70.60
2017-09-29T06:50:21.508Z,70.90
2017-09-29T06:51:27.215Z,71.00
2017-09-29T06:52:33.128Z,71.00
2017-09-29T06:53:38.985Z,71.10
2017-09-29T06:54:45.284Z,71.30
2017-09-29T06:55:51.100Z,71.20
2017-09-29T06:56:56.974Z,71.20
2017-09-29T06:58:02.820Z,71.20
2017-09-29T06:59:08.087Z,71.10
2017-09-29T07:00:13.244Z,71.30
2017-09-29T07:01:19.243Z,71.50
2017-09-29T07:02:25.307Z,71.20
2017-09-29T07:03:31.058Z,71.30
2017-09-29T07:04:36.927Z,71.10
2017-09-29T07:05:42.931Z,71.00
2017-09-29T07:06:48.644Z,70.80
2017-09-29T07:07:53.995Z,70.90
2017-09-29T07:08:59.027Z,70.70
2017-09-29T07:10:04.126Z,70.80
2017-09-29T07:11:09.605Z,70.80
2017-09-29T07:12:15.363Z,70.80
2017-09-29T07:13:23.060Z,70.70
2017-09-29T07:14:28.800Z,70.80
2017-09-29T07:15:34.519Z,71.00
2017-09-29T07:16:39.686Z,70.80
2017-09-29T07:17:45.614Z,70.80
2017-09-29T07:18:50.744Z,70.60
2017-09-29T07:19:56.857Z,70.50
2017-09-29T07:21:02.029Z,70.50
2017-09-29T07:22:07.339Z,70.30
2017-09-29T07:23:12.727Z,70.30
2017-09-29T07:24:17.995Z,70.20
2017-09-29T07:25:23.161Z,70.20
2017-09-29T07:26:28.345Z,70.10
2017-09-29T07:27:33.480Z,70.20
2017-09-29T07:28:40.315Z,70.20
2017-09-29T07:29:45.342Z,70.50
2017-09-29T07:30:50.668Z,70.70
2017-09-29T07:31:56.517Z,71.10
2017-09-29T07:33:01.521Z,71.10
2017-09-29T07:34:06.728Z,71.20
2017-09-29T07:35:11.761Z,71.30
2017-09-29T07:36:17.146Z,71.00
2017-09-29T07:37:22.502Z,71.10
2017-09-29T07:38:27.613Z,71.10
2017-09-29T07:39:32.887Z,71.10
2017-09-29T07:40:38.114Z,71.20
2017-09-29T07:41:43.622Z,71.80
2017-09-29T07:42:48.924Z,72.00
2017-09-29T07:43:54.181Z,71.90
2017-09-29T07:44:59.487Z,71.70
2017-09-29T07:46:05.081Z,71.80
2017-09-29T07:47:10.392Z,71.70
2017-09-29T07:48:15.694Z,71.70
2017-09-29T07:49:21.054Z,71.90
2017-09-29T07:50:26.476Z,71.60
2017-09-29T07:51:31.773Z,71.50
2017-09-29T07:52:37.122Z,71.50
2017-09-29T07:53:42.263Z,71.60
2017-09-29T07:54:47.464Z,71.50
2017-09-29T07:55:52.708Z,71.30
2017-09-29T07:56:58.071Z,71.30
2017-09-29T07:58:03.768Z,71.20
2017-09-29T07:59:09.040Z,71.20
2017-09-29T08:00:14.360Z,71.00
2017-09-29T08:01:19.803Z,71.00
2017-09-29T08:02:26.238Z,71.50
2017-09-29T08:03:31.402Z,71.20
2017-09-29T08:04:36.254Z,71.20
2017-09-29T08:05:41.930Z,71.20
2017-09-29T08:06:47.170Z,71.00
2017-09-29T08:07:52.153Z,71.70
2017-09-29T08:08:57.331Z,72.10
2017-09-29T08:10:02.629Z,72.30
2017-09-29T08:11:07.756Z,72.30
2017-09-29T08:12:13.054Z,72.30
2017-09-29T08:13:17.913Z,72.00
2017-09-29T08:14:23.522Z,72.00
2017-09-29T08:15:29.114Z,72.10
2017-09-29T08:16:34.460Z,71.80
2017-09-29T08:17:39.655Z,71.80
2017-09-29T08:18:45.146Z,71.80
2017-09-29T08:19:50.300Z,71.70
2017-09-29T08:20:56.023Z,71.50
2017-09-29T08:22:02.922Z,71.50
2017-09-29T08:23:08.787Z,71.40
2017-09-29T08:24:14.697Z,71.20
2017-09-29T08:25:20.681Z,72.00
2017-09-29T08:26:26.915Z,71.10
2017-09-29T08:27:34.089Z,71.00
2017-09-29T08:28:39.693Z,70.90
2017-09-29T08:29:45.383Z,71.00
2017-09-29T08:30:51.089Z,71.00
2017-09-29T08:31:56.574Z,71.00
2017-09-29T08:33:15.821Z,71.00
2017-09-29T08:34:21.546Z,71.20
2017-09-29T08:35:27.082Z,71.40
2017-09-29T08:36:32.737Z,71.10
2017-09-29T08:37:38.464Z,71.60
2017-09-29T08:38:44.299Z,71.40
2017-09-29T08:39:49.872Z,71.30
2017-09-29T08:40:55.383Z,71.60
2017-09-29T08:42:01.202Z,72.50
2017-09-29T08:43:06.885Z,71.70
2017-09-29T08:44:12.302Z,71.40
2017-09-29T08:45:18.070Z,71.20
2017-09-29T08:46:24.054Z,71.20
2017-09-29T08:47:29.407Z,71.10
2017-09-29T08:48:36.984Z,71.00
2017-09-29T08:49:42.256Z,71.10
2017-09-29T08:50:47.247Z,71.00
2017-09-29T08:51:52.783Z,71.10
2017-09-29T08:52:58.215Z,71.00
2017-09-29T08:54:03.432Z,71.00
2017-09-29T08:55:09.364Z,71.20
2017-09-29T08:56:14.798Z,71.00
2017-09-29T08:57:20.103Z,71.30
2017-09-29T08:58:25.413Z,71.30
2017-09-29T08:59:30.386Z,71.10
2017-09-29T09:00:35.953Z,71.30
2017-09-29T09:01:42.142Z,71.20
2017-09-29T09:02:47.672Z,71.00
2017-09-29T09:03:54.703Z,71.10
2017-09-29T09:05:00.064Z,71.00
2017-09-29T09:06:05.661Z,71.20
2017-09-29T09:07:11.155Z,71.10
2017-09-29T09:08:16.516Z,71.00
2017-09-29T09:09:21.715Z,71.10
2017-09-29T09:10:27.089Z,71.40
2017-09-29T09:11:32.293Z,71.30
2017-09-29T09:12:37.583Z,71.30
2017-09-29T09:13:44.306Z,71.20
2017-09-29T09:14:49.706Z,71.10
2017-09-29T09:15:55.095Z,71.20
2017-09-29T09:17:00.619Z,71.10
2017-09-29T09:18:06.903Z,71.10
2017-09-29T09:19:13.011Z,71.30
2017-09-29T09:20:18.918Z,71.60
2017-09-29T09:21:24.698Z,71.80
2017-09-29T09:22:30.474Z,71.80
2017-09-29T09:23:36.317Z,71.90
2017-09-29T09:24:41.598Z,72.10
2017-09-29T09:25:50.058Z,72.10
2017-09-29T09:26:56.804Z,72.60
2017-09-29T09:28:04.832Z,72.40
2017-09-29T09:29:11.679Z,72.40
2017-09-29T09:30:18.618Z,72.60
2017-09-29T09:31:26.345Z,72.70
2017-09-29T09:32:34.641Z,73.50
2017-09-29T09:33:40.136Z,73.70
2017-09-29T09:34:45.315Z,74.00
2017-09-29T09:35:50.582Z,74.00
2017-09-29T09:36:55.619Z,74.20
2017-09-29T09:38:01.112Z,74.30
2017-09-29T09:39:06.806Z,74.70
2017-09-29T09:40:11.974Z,75.10
2017-09-29T09:41:17.205Z,75.50
2017-09-29T09:42:22.403Z,75.90
2017-09-29T09:43:27.813Z,75.80
2017-09-29T09:44:33.478Z,76.00
2017-09-29T09:45:38.630Z,76.60
2017-09-29T09:46:43.773Z,76.80
2017-09-29T09:47:48.989Z,77.10
2017-09-29T09:48:54.403Z,77.70
2017-09-29T09:49:59.741Z,77.80
2017-09-29T09:51:04.997Z,77.90
2017-09-29T09:52:10.271Z,77.80
2017-09-29T09:53:15.540Z,77.90
2017-09-29T09:54:20.664Z,77.70
2017-09-29T09:55:25.762Z,77.50
2017-09-29T09:56:30.891Z,77.20
2017-09-29T09:57:35.929Z,77.10
2017-09-29T09:58:40.984Z,76.90
2017-09-29T09:59:46.545Z,76.80
2017-09-29T10:00:51.620Z,76.60
2017-09-29T10:01:56.963Z,76.60
2017-09-29T10:03:02.473Z,76.60
2017-09-29T10:04:07.435Z,76.50
2017-09-29T10:05:12.377Z,76.50
2017-09-29T10:06:17.876Z,76.20
2017-09-29T10:07:23.105Z,76.00
2017-09-29T10:08:28.379Z,75.90
2017-09-29T10:09:33.787Z,75.70
2017-09-29T10:10:39.349Z,75.60
2017-09-29T10:11:44.513Z,75.50
2017-09-29T10:12:50.028Z,75.80
2017-09-29T10:13:55.446Z,75.90
2017-09-29T10:15:00.855Z,75.90
2017-09-29T10:16:06.444Z,75.90
2017-09-29T10:17:13.024Z,76.00
2017-09-29T10:18:18.072Z,76.00
2017-09-29T10:19:23.291Z,76.00
2017-09-29T10:20:28.380Z,75.90
2017-09-29T10:21:34.044Z,75.80
2017-09-29T10:22:39.590Z,75.60
2017-09-29T10:23:44.778Z,75.60
2017-09-29T10:24:50.055Z,75.50
2017-09-29T10:25:55.710Z,75.40
2017-09-29T10:27:01.011Z,75.30
2017-09-29T10:28:06.391Z,75.20
2017-09-29T10:29:13.216Z,74.90
2017-09-29T10:30:18.754Z,74.70
2017-09-29T10:31:24.008Z,74.70
2017-09-29T10:32:29.607Z,74.60
2017-09-29T10:33:34.898Z,74.40
2017-09-29T10:34:40.317Z,74.40
2017-09-29T10:35:45.342Z,74.30
2017-09-29T10:36:50.708Z,74.40
2017-09-29T10:37:56.363Z,74.30
2017-09-29T10:39:01.908Z,74.20
2017-09-29T10:40:06.954Z,74.20
2017-09-29T10:41:12.759Z,73.90
2017-09-29T10:42:18.310Z,73.80
2017-09-29T10:43:23.549Z,73.80
2017-09-29T10:44:29.171Z,73.70
2017-09-29T10:45:34.406Z,73.50
2017-09-29T10:46:39.849Z,73.50
2017-09-29T10:47:45.533Z,73.50
2017-09-29T10:48:50.971Z,73.50
2017-09-29T10:49:56.238Z,73.50
2017-09-29T10:51:01.411Z,73.50
2017-09-29T10:52:06.799Z,73.50
2017-09-29T10:53:12.099Z,73.50
2017-09-29T10:54:19.189Z,73.50
2017-09-29T10:55:24.251Z,73.40
2017-09-29T10:56:29.782Z,73.30
2017-09-29T10:57:35.060Z,73.20
2017-09-29T10:58:41.456Z,73.20
2017-09-29T10:59:47.420Z,73.10
2017-09-29T11:00:52.859Z,73.20
2017-09-29T11:01:58.489Z,73.20
2017-09-29T11:03:04.129Z,73.40
2017-09-29T11:04:09.451Z,73.50
2017-09-29T11:05:15.113Z,73.50
2017-09-29T11:06:20.907Z,73.70
2017-09-29T11:07:26.854Z,73.70
2017-09-29T11:08:31.759Z,73.90
2017-09-29T11:09:37.079Z,74.00
2017-09-29T11:10:42.261Z,73.90
2017-09-29T11:11:47.684Z,73.70
2017-09-29T11:12:53.182Z,73.70
2017-09-29T11:13:58.640Z,73.70
2017-09-29T11:15:04.415Z,73.40
2017-09-29T11:16:09.888Z,73.50
2017-09-29T11:17:15.675Z,73.80
2017-09-29T11:18:20.881Z,73.70
2017-09-29T11:19:26.380Z,73.30
2017-09-29T11:20:31.362Z,73.60
2017-09-29T11:21:36.573Z,73.80
2017-09-29T11:22:41.796Z,74.20
2017-09-29T11:23:47.495Z,74.40
2017-09-29T11:24:53.031Z,74.50
2017-09-29T11:25:58.909Z,74.70
2017-09-29T11:27:04.625Z,74.70
2017-09-29T11:28:10.275Z,74.50
2017-09-29T11:29:15.686Z,74.40
2017-09-29T11:30:21.265Z,73.70
2017-09-29T11:31:26.559Z,73.70
2017-09-29T11:32:31.676Z,73.80
2017-09-29T11:33:37.293Z,73.50
2017-09-29T11:34:43.770Z,73.40
2017-09-29T11:35:49.259Z,73.30
2017-09-29T11:36:55.088Z,73.20
2017-09-29T11:38:01.267Z,73.20
2017-09-29T11:39:06.865Z,74.00
2017-09-29T11:40:12.763Z,73.60
2017-09-29T11:41:18.632Z,73.60
2017-09-29T11:42:24.325Z,73.70
2017-09-29T11:43:30.263Z,73.60
2017-09-29T11:44:35.783Z,73.40
2017-09-29T11:45:41.439Z,73.20
2017-09-29T11:46:47.313Z,73.10
2017-09-29T11:47:53.137Z,73.00
2017-09-29T11:48:59.020Z,72.80
2017-09-29T11:50:04.999Z,72.90
2017-09-29T11:51:10.751Z,73.10
2017-09-29T11:52:16.532Z,73.20
2017-09-29T11:53:22.581Z,73.20
2017-09-29T11:54:28.340Z,73.20
2017-09-29T11:55:34.082Z,73.00
2017-09-29T11:56:39.637Z,72.80
2017-09-29T11:57:47.600Z,72.80
2017-09-29T11:58:53.606Z,72.80
2017-09-29T11:59:59.465Z,72.70
2017-09-29T12:01:04.667Z,72.80
2017-09-29T12:02:10.372Z,72.60
2017-09-29T12:03:15.739Z,72.40
2017-09-29T12:04:22.928Z,72.10
2017-09-29T12:05:28.594Z,72.00
2017-09-29T12:06:34.214Z,71.80
2017-09-29T12:07:39.863Z,71.70
2017-09-29T12:08:45.528Z,71.70
2017-09-29T12:09:51.741Z,71.60
2017-09-29T12:10:57.671Z,71.40
2017-09-29T12:12:03.275Z,71.30
2017-09-29T12:13:09.702Z,71.10
2017-09-29T12:14:15.198Z,70.90
2017-09-29T12:15:21.860Z,70.90
2017-09-29T12:16:32.622Z,70.70
2017-09-29T12:17:39.338Z,70.70
2017-09-29T12:18:45.273Z,70.80
2017-09-29T12:19:53.790Z,70.70
2017-09-29T12:20:59.757Z,70.60
2017-09-29T12:22:05.538Z,70.40
2017-09-29T12:23:10.753Z,70.30
2017-09-29T12:24:16.177Z,70.30
2017-09-29T12:25:21.656Z,70.40
2017-09-29T12:26:27.070Z,70.60
2017-09-29T12:27:33.023Z,70.90
2017-09-29T12:28:38.806Z,71.20
2017-09-29T12:29:47.478Z,71.40
2017-09-29T12:30:53.359Z,71.60
2017-09-29T12:31:59.336Z,71.40
2017-09-29T12:33:04.519Z,71.20
2017-09-29T12:34:09.975Z,70.90
2017-09-29T12:35:15.541Z,70.90
2017-09-29T12:36:21.415Z,70.80
2017-09-29T12:37:27.156Z,70.70
2017-09-29T12:38:32.716Z,70.70
2017-09-29T12:39:38.137Z,70.70
2017-09-29T12:40:44.485Z,70.70
2017-09-29T12:41:50.093Z,70.70
2017-09-29T12:42:55.907Z,70.60
2017-09-29T12:44:01.346Z,70.70
2017-09-29T12:45:06.844Z,70.50
2017-09-29T12:46:12.180Z,70.50
2017-09-29T12:47:19.327Z,70.20
2017-09-29T12:48:25.407Z,70.10
2017-09-29T12:49:30.745Z,70.30
2017-09-29T12:50:36.229Z,70.70
2017-09-29T12:51:41.579Z,70.90
2017-09-29T12:52:47.027Z,71.00
2017-09-29T12:53:52.368Z,70.80
2017-09-29T12:54:58.691Z,70.80
2017-09-29T12:56:05.478Z,70.60
2017-09-29T12:57:11.005Z,70.30
2017-09-29T12:58:16.404Z,70.10
2017-09-29T12:59:22.122Z,70.00
2017-09-29T13:00:28.689Z,70.00
2017-09-29T13:01:34.505Z,70.00
2017-09-29T13:02:40.426Z,69.90
2017-09-29T13:03:45.831Z,69.70
2017-09-29T13:04:51.406Z,69.90
2017-09-29T13:05:57.003Z,69.90
2017-09-29T13:07:02.469Z,69.50
2017-09-29T13:08:07.649Z,69.30
2017-09-29T13:09:12.973Z,69.20
2017-09-29T13:10:19.131Z,69.20
2017-09-29T13:11:25.552Z,69.20
2017-09-29T13:12:30.474Z,69.10
2017-09-29T13:13:36.182Z,69.40
2017-09-29T13:14:41.430Z,69.40
2017-09-29T13:15:47.198Z,69.40
2017-09-29T13:16:52.494Z,69.60
2017-09-29T13:17:59.048Z,69.60
2017-09-29T13:19:03.938Z,69.50
2017-09-29T13:20:09.317Z,69.60
2017-09-29T13:21:17.801Z,69.70
2017-09-29T13:22:23.071Z,69.80
2017-09-29T13:23:28.139Z,70.00
2017-09-29T13:24:36.498Z,69.90
2017-09-29T13:25:42.208Z,69.80
2017-09-29T13:26:47.773Z,69.60
2017-09-29T13:27:53.378Z,69.50
2017-09-29T13:28:58.921Z,69.00
2017-09-29T13:30:04.512Z,68.50
2017-09-29T13:31:10.314Z,68.20
2017-09-29T13:32:15.804Z,68.30
2017-09-29T13:33:22.121Z,69.00
2017-09-29T13:34:28.449Z,68.40
2017-09-29T13:35:35.426Z,68.50
2017-09-29T13:36:41.255Z,68.60
2017-09-29T13:37:46.406Z,68.50
2017-09-29T13:38:51.812Z,68.40
2017-09-29T13:39:57.130Z,68.70
2017-09-29T13:41:02.849Z,68.80
2017-09-29T13:42:08.453Z,68.80
2017-09-29T13:43:14.315Z,68.90
2017-09-29T13:44:19.494Z,69.00
2017-09-29T13:45:25.063Z,69.10
2017-09-29T13:46:30.622Z,69.20
2017-09-29T13:47:37.204Z,69.20
2017-09-29T13:48:42.814Z,69.20
2017-09-29T13:49:49.450Z,69.50
2017-09-29T13:50:55.349Z,69.40
2017-09-29T13:52:01.567Z,69.40
2017-09-29T13:53:06.880Z,69.50
2017-09-29T13:54:12.022Z,69.40
2017-09-29T13:55:17.215Z,69.40
2017-09-29T13:56:22.481Z,69.50
2017-09-29T13:57:27.559Z,69.60
2017-09-29T13:58:32.800Z,69.60
2017-09-29T13:59:40.938Z,69.70
2017-09-29T14:00:46.145Z,69.70
2017-09-29T14:01:51.212Z,69.80